sensor_id;sensor_type;location;lat;lon;timestamp;temperature;humidity
13346;DHT22;6742;48.036;15.780;2023-02-01T00:01:19;3.20;99.90
13346;DHT22;6742;48.036;15.780;2023-02-01T00:03:46;3.20;99.90
13346;DHT22;6742;48.036;15.780;2023-02-01T00:06:12;3.20;99.90
13346;DHT22;6742;48.036;15.780;2023-02-01T00:08:42;3.20;99.90
13346;DHT22;6742;48.036;15.780;2023-02-01T00:11:10;3.20;99.90
13346;DHT22;6742;48.036;15.780;2023-02-01T00:13:40;3.20;99.90
13346;DHT22;6742;48.036;15.780;2023-02-01T00:16:09;3.20;99.90
13346;DHT22;6742;48.036;15.780;2023-02-01T00:18:37;3.20;99.90
13346;DHT22;6742;48.036;15.780;2023-02-01T00:21:04;3.20;99.90
13346;DHT22;6742;48.036;15.780;2023-02-01T00:23:32;3.10;99.90
13346;DHT22;6742;48.036;15.780;2023-02-01T00:26:00;3.10;99.90
13346;DHT22;6742;48.036;15.780;2023-02-01T00:28:27;3.10;99.90
13346;DHT22;6742;48.036;15.780;2023-02-01T00:30:59;3.10;99.90
13346;DHT22;6742;48.036;15.780;2023-02-01T00:33:26;3.10;99.90
13346;DHT22;6742;48.036;15.780;2023-02-01T00:35:56;3.20;99.90
13346;DHT22;6742;48.036;15.780;2023-02-01T00:38:24;3.10;99.90
13346;DHT22;6742;48.036;15.780;2023-02-01T00:40:54;3.10;99.90
13346;DHT22;6742;48.036;15.780;2023-02-01T00:43:21;3.20;99.90
13346;DHT22;6742;48.036;15.780;2023-02-01T00:45:48;3.20;99.90
13346;DHT22;6742;48.036;15.780;2023-02-01T00:48:16;3.20;99.90
13346;DHT22;6742;48.036;15.780;2023-02-01T00:50:46;3.20;99.90
13346;DHT22;6742;48.036;15.780;2023-02-01T00:53:13;3.20;99.90
13346;DHT22;6742;48.036;15.780;2023-02-01T00:55:40;3.20;99.90
13346;DHT22;6742;48.036;15.780;2023-02-01T00:58:07;3.20;99.90
13346;DHT22;6742;48.036;15.780;2023-02-01T01:00:35;3.20;99.90
13346;DHT22;6742;48.036;15.780;2023-02-01T01:03:02;3.20;99.90
13346;DHT22;6742;48.036;15.780;2023-02-01T01:05:44;3.20;99.90
13346;DHT22;6742;48.036;15.780;2023-02-01T01:08:11;3.20;99.90
13346;DHT22;6742;48.036;15.780;2023-02-01T01:10:38;3.10;99.90
13346;DHT22;6742;48.036;15.780;2023-02-01T01:13:06;3.10;99.90
13346;DHT22;6742;48.036;15.780;2023-02-01T01:15:36;3.10;99.90
13346;DHT22;6742;48.036;15.780;2023-02-01T01:18:03;3.10;99.90
13346;DHT22;6742;48.036;15.780;2023-02-01T01:20:30;3.10;99.90
13346;DHT22;6742;48.036;15.780;2023-02-01T01:22:58;3.10;99.90
13346;DHT22;6742;48.036;15.780;2023-02-01T01:25:27;3.10;99.90
13346;DHT22;6742;48.036;15.780;2023-02-01T01:27:58;3.00;99.90
13346;DHT22;6742;48.036;15.780;2023-02-01T01:30:25;3.00;99.90
13346;DHT22;6742;48.036;15.780;2023-02-01T01:32:52;3.00;99.90
13346;DHT22;6742;48.036;15.780;2023-02-01T01:35:19;3.00;99.90
13346;DHT22;6742;48.036;15.780;2023-02-01T01:37:46;3.00;99.90
13346;DHT22;6742;48.036;15.780;2023-02-01T01:40:14;3.00;99.90
13346;DHT22;6742;48.036;15.780;2023-02-01T01:42:42;3.10;99.90
13346;DHT22;6742;48.036;15.780;2023-02-01T01:45:20;3.00;99.90
13346;DHT22;6742;48.036;15.780;2023-02-01T01:47:50;3.00;99.90
13346;DHT22;6742;48.036;15.780;2023-02-01T01:50:20;3.00;99.90
13346;DHT22;6742;48.036;15.780;2023-02-01T01:52:52;3.00;99.90
13346;DHT22;6742;48.036;15.780;2023-02-01T01:55:22;3.00;99.90
13346;DHT22;6742;48.036;15.780;2023-02-01T01:57:55;3.00;99.90
13346;DHT22;6742;48.036;15.780;2023-02-01T02:00:22;3.00;99.90
13346;DHT22;6742;48.036;15.780;2023-02-01T02:02:54;3.00;99.90
13346;DHT22;6742;48.036;15.780;2023-02-01T02:05:24;3.10;99.90
13346;DHT22;6742;48.036;15.780;2023-02-01T02:07:53;3.00;99.90
13346;DHT22;6742;48.036;15.780;2023-02-01T02:10:25;3.10;99.90
13346;DHT22;6742;48.036;15.780;2023-02-01T02:13:13;3.00;99.90
13346;DHT22;6742;48.036;15.780;2023-02-01T02:15:48;3.00;99.90
13346;DHT22;6742;48.036;15.780;2023-02-01T02:18:23;3.00;99.90
13346;DHT22;6742;48.036;15.780;2023-02-01T02:21:06;3.10;99.90
13346;DHT22;6742;48.036;15.780;2023-02-01T02:26:53;3.00;99.90
13346;DHT22;6742;48.036;15.780;2023-02-01T02:29:54;3.00;99.90
13346;DHT22;6742;48.036;15.780;2023-02-01T02:35:47;3.00;99.90
13346;DHT22;6742;48.036;15.780;2023-02-01T02:38:18;3.00;99.90
13346;DHT22;6742;48.036;15.780;2023-02-01T02:40:54;3.00;99.90
13346;DHT22;6742;48.036;15.780;2023-02-01T02:43:29;3.00;99.90
13346;DHT22;6742;48.036;15.780;2023-02-01T02:46:21;3.00;99.90
13346;DHT22;6742;48.036;15.780;2023-02-01T02:49:11;2.90;99.90
13346;DHT22;6742;48.036;15.780;2023-02-01T02:51:46;3.00;99.90
13346;DHT22;6742;48.036;15.780;2023-02-01T02:54:35;3.00;99.90
13346;DHT22;6742;48.036;15.780;2023-02-01T02:57:22;3.00;99.90
13346;DHT22;6742;48.036;15.780;2023-02-01T03:00:12;3.10;99.90
13346;DHT22;6742;48.036;15.780;2023-02-01T03:02:58;3.10;99.90
13346;DHT22;6742;48.036;15.780;2023-02-01T03:05:44;3.10;99.90
13346;DHT22;6742;48.036;15.780;2023-02-01T03:08:14;3.20;99.90
13346;DHT22;6742;48.036;15.780;2023-02-01T03:10:49;3.20;99.90
13346;DHT22;6742;48.036;15.780;2023-02-01T03:13:22;3.20;99.90
13346;DHT22;6742;48.036;15.780;2023-02-01T03:15:57;3.20;99.90
13346;DHT22;6742;48.036;15.780;2023-02-01T03:18:30;3.20;99.90
13346;DHT22;6742;48.036;15.780;2023-02-01T03:21:02;3.30;99.90
13346;DHT22;6742;48.036;15.780;2023-02-01T03:23:35;3.20;99.90
13346;DHT22;6742;48.036;15.780;2023-02-01T03:26:06;3.30;99.90
13346;DHT22;6742;48.036;15.780;2023-02-01T03:28:34;3.30;99.90
13346;DHT22;6742;48.036;15.780;2023-02-01T03:31:03;3.30;99.90
13346;DHT22;6742;48.036;15.780;2023-02-01T03:33:30;3.20;99.90
13346;DHT22;6742;48.036;15.780;2023-02-01T03:36:05;3.30;99.90
13346;DHT22;6742;48.036;15.780;2023-02-01T03:38:39;3.30;99.90
13346;DHT22;6742;48.036;15.780;2023-02-01T03:41:13;3.30;99.90
13346;DHT22;6742;48.036;15.780;2023-02-01T03:43:49;3.40;99.90
13346;DHT22;6742;48.036;15.780;2023-02-01T03:46:22;3.40;99.90
13346;DHT22;6742;48.036;15.780;2023-02-01T03:48:51;3.40;99.90
13346;DHT22;6742;48.036;15.780;2023-02-01T03:51:20;3.40;99.90
13346;DHT22;6742;48.036;15.780;2023-02-01T03:53:50;3.50;99.90
13346;DHT22;6742;48.036;15.780;2023-02-01T03:56:20;3.50;99.90
13346;DHT22;6742;48.036;15.780;2023-02-01T03:58:48;3.50;99.90
13346;DHT22;6742;48.036;15.780;2023-02-01T04:01:25;3.50;99.90
13346;DHT22;6742;48.036;15.780;2023-02-01T04:03:52;3.50;99.90
13346;DHT22;6742;48.036;15.780;2023-02-01T04:06:19;3.50;99.90
13346;DHT22;6742;48.036;15.780;2023-02-01T04:08:46;3.50;99.90
13346;DHT22;6742;48.036;15.780;2023-02-01T04:11:15;3.40;99.90
13346;DHT22;6742;48.036;15.780;2023-02-01T04:13:41;3.50;99.90
13346;DHT22;6742;48.036;15.780;2023-02-01T04:16:09;3.50;99.90
13346;DHT22;6742;48.036;15.780;2023-02-01T04:18:36;3.50;99.90
13346;DHT22;6742;48.036;15.780;2023-02-01T04:21:03;3.50;99.90
13346;DHT22;6742;48.036;15.780;2023-02-01T04:23:33;3.50;99.90
13346;DHT22;6742;48.036;15.780;2023-02-01T04:26:02;3.40;99.90
13346;DHT22;6742;48.036;15.780;2023-02-01T04:28:30;3.40;99.90
13346;DHT22;6742;48.036;15.780;2023-02-01T04:30:57;3.50;99.90
13346;DHT22;6742;48.036;15.780;2023-02-01T04:33:24;3.40;99.90
13346;DHT22;6742;48.036;15.780;2023-02-01T04:35:54;3.40;99.90
13346;DHT22;6742;48.036;15.780;2023-02-01T04:38:21;3.50;99.90
13346;DHT22;6742;48.036;15.780;2023-02-01T04:40:48;3.50;99.90
13346;DHT22;6742;48.036;15.780;2023-02-01T04:43:15;3.50;99.90
13346;DHT22;6742;48.036;15.780;2023-02-01T04:45:47;3.50;99.90
13346;DHT22;6742;48.036;15.780;2023-02-01T04:48:15;3.60;99.90
13346;DHT22;6742;48.036;15.780;2023-02-01T04:50:43;3.60;99.90
13346;DHT22;6742;48.036;15.780;2023-02-01T04:53:10;3.60;99.90
13346;DHT22;6742;48.036;15.780;2023-02-01T04:55:37;3.60;99.90
13346;DHT22;6742;48.036;15.780;2023-02-01T04:58:04;3.60;99.90
13346;DHT22;6742;48.036;15.780;2023-02-01T05:00:31;3.60;99.90
13346;DHT22;6742;48.036;15.780;2023-02-01T05:03:02;3.60;99.90
13346;DHT22;6742;48.036;15.780;2023-02-01T05:05:29;3.60;99.90
13346;DHT22;6742;48.036;15.780;2023-02-01T05:07:56;3.60;99.90
13346;DHT22;6742;48.036;15.780;2023-02-01T05:10:23;3.60;99.90
13346;DHT22;6742;48.036;15.780;2023-02-01T05:12:50;3.60;99.90
13346;DHT22;6742;48.036;15.780;2023-02-01T05:15:34;3.60;99.90
13346;DHT22;6742;48.036;15.780;2023-02-01T05:18:03;3.50;99.90
13346;DHT22;6742;48.036;15.780;2023-02-01T05:20:30;3.50;99.90
13346;DHT22;6742;48.036;15.780;2023-02-01T05:22:59;3.50;99.90
13346;DHT22;6742;48.036;15.780;2023-02-01T05:25:26;3.50;99.90
13346;DHT22;6742;48.036;15.780;2023-02-01T05:27:53;3.50;99.90
13346;DHT22;6742;48.036;15.780;2023-02-01T05:30:20;3.40;99.90
13346;DHT22;6742;48.036;15.780;2023-02-01T05:32:49;3.40;99.90
13346;DHT22;6742;48.036;15.780;2023-02-01T05:35:18;3.50;99.90
13346;DHT22;6742;48.036;15.780;2023-02-01T05:37:45;3.50;99.90
13346;DHT22;6742;48.036;15.780;2023-02-01T05:40:12;3.40;99.90
13346;DHT22;6742;48.036;15.780;2023-02-01T05:42:42;3.40;99.90
13346;DHT22;6742;48.036;15.780;2023-02-01T05:45:09;3.60;99.90
13346;DHT22;6742;48.036;15.780;2023-02-01T05:47:36;3.50;99.90
13346;DHT22;6742;48.036;15.780;2023-02-01T05:50:04;3.40;99.90
13346;DHT22;6742;48.036;15.780;2023-02-01T05:52:33;3.50;99.90
13346;DHT22;6742;48.036;15.780;2023-02-01T05:55:00;3.50;99.90
13346;DHT22;6742;48.036;15.780;2023-02-01T05:57:27;3.50;99.90
13346;DHT22;6742;48.036;15.780;2023-02-01T05:59:54;3.50;99.90
13346;DHT22;6742;48.036;15.780;2023-02-01T06:02:21;3.50;99.90
13346;DHT22;6742;48.036;15.780;2023-02-01T06:04:49;3.60;99.90
13346;DHT22;6742;48.036;15.780;2023-02-01T06:07:16;3.60;99.90
13346;DHT22;6742;48.036;15.780;2023-02-01T06:09:45;3.60;99.90
13346;DHT22;6742;48.036;15.780;2023-02-01T06:12:12;3.60;99.90
13346;DHT22;6742;48.036;15.780;2023-02-01T06:14:39;3.60;99.90
13346;DHT22;6742;48.036;15.780;2023-02-01T06:17:06;3.60;99.90
13346;DHT22;6742;48.036;15.780;2023-02-01T06:19:33;3.60;99.90
13346;DHT22;6742;48.036;15.780;2023-02-01T06:22:00;3.60;99.90
13346;DHT22;6742;48.036;15.780;2023-02-01T06:24:27;3.60;99.90
13346;DHT22;6742;48.036;15.780;2023-02-01T06:26:56;3.70;99.90
13346;DHT22;6742;48.036;15.780;2023-02-01T06:29:26;3.70;99.90
13346;DHT22;6742;48.036;15.780;2023-02-01T06:31:52;3.70;99.90
13346;DHT22;6742;48.036;15.780;2023-02-01T06:34:19;3.80;99.90
13346;DHT22;6742;48.036;15.780;2023-02-01T06:36:47;3.70;99.90
13346;DHT22;6742;48.036;15.780;2023-02-01T06:39:14;3.70;99.90
13346;DHT22;6742;48.036;15.780;2023-02-01T06:41:42;3.80;99.90
13346;DHT22;6742;48.036;15.780;2023-02-01T06:44:10;3.80;99.90
13346;DHT22;6742;48.036;15.780;2023-02-01T06:46:37;3.80;99.90
13346;DHT22;6742;48.036;15.780;2023-02-01T06:49:04;3.70;99.90
13346;DHT22;6742;48.036;15.780;2023-02-01T06:51:31;3.80;99.90
13346;DHT22;6742;48.036;15.780;2023-02-01T06:53:58;3.70;99.90
13346;DHT22;6742;48.036;15.780;2023-02-01T06:56:25;3.80;99.90
13346;DHT22;6742;48.036;15.780;2023-02-01T06:58:52;3.80;99.90
13346;DHT22;6742;48.036;15.780;2023-02-01T07:01:21;3.80;99.90
13346;DHT22;6742;48.036;15.780;2023-02-01T07:03:49;3.80;99.90
13346;DHT22;6742;48.036;15.780;2023-02-01T07:06:16;3.70;99.90
13346;DHT22;6742;48.036;15.780;2023-02-01T07:08:44;3.80;99.90
13346;DHT22;6742;48.036;15.780;2023-02-01T07:11:12;3.80;99.90
13346;DHT22;6742;48.036;15.780;2023-02-01T07:13:39;3.80;99.90
13346;DHT22;6742;48.036;15.780;2023-02-01T07:16:09;3.80;99.90
13346;DHT22;6742;48.036;15.780;2023-02-01T07:18:38;3.80;99.90
13346;DHT22;6742;48.036;15.780;2023-02-01T07:21:05;3.80;99.90
13346;DHT22;6742;48.036;15.780;2023-02-01T07:23:33;3.80;99.90
13346;DHT22;6742;48.036;15.780;2023-02-01T07:26:01;3.80;99.90
13346;DHT22;6742;48.036;15.780;2023-02-01T07:28:30;3.80;99.90
13346;DHT22;6742;48.036;15.780;2023-02-01T07:31:02;3.80;99.90
13346;DHT22;6742;48.036;15.780;2023-02-01T07:33:29;3.70;99.90
13346;DHT22;6742;48.036;15.780;2023-02-01T07:35:59;3.80;99.90
13346;DHT22;6742;48.036;15.780;2023-02-01T07:38:29;3.80;99.90
13346;DHT22;6742;48.036;15.780;2023-02-01T07:40:59;3.80;99.90
13346;DHT22;6742;48.036;15.780;2023-02-01T07:43:27;3.80;99.90
13346;DHT22;6742;48.036;15.780;2023-02-01T07:45:55;3.70;99.90
13346;DHT22;6742;48.036;15.780;2023-02-01T07:48:23;3.80;99.90
13346;DHT22;6742;48.036;15.780;2023-02-01T07:51:05;3.70;99.90
13346;DHT22;6742;48.036;15.780;2023-02-01T07:53:34;3.80;99.90
13346;DHT22;6742;48.036;15.780;2023-02-01T07:56:02;3.70;99.90
13346;DHT22;6742;48.036;15.780;2023-02-01T07:58:29;3.70;99.90
13346;DHT22;6742;48.036;15.780;2023-02-01T08:00:56;3.80;99.90
13346;DHT22;6742;48.036;15.780;2023-02-01T08:03:41;3.80;99.90
13346;DHT22;6742;48.036;15.780;2023-02-01T08:06:17;3.80;99.90
13346;DHT22;6742;48.036;15.780;2023-02-01T08:08:45;3.90;99.90
13346;DHT22;6742;48.036;15.780;2023-02-01T08:11:13;3.90;99.90
13346;DHT22;6742;48.036;15.780;2023-02-01T08:13:40;3.90;99.90
13346;DHT22;6742;48.036;15.780;2023-02-01T08:16:09;3.90;99.90
13346;DHT22;6742;48.036;15.780;2023-02-01T08:18:37;3.90;99.90
13346;DHT22;6742;48.036;15.780;2023-02-01T08:21:05;4.00;99.90
13346;DHT22;6742;48.036;15.780;2023-02-01T08:23:34;3.90;99.90
13346;DHT22;6742;48.036;15.780;2023-02-01T08:26:06;3.90;99.90
13346;DHT22;6742;48.036;15.780;2023-02-01T08:28:33;3.90;99.90
13346;DHT22;6742;48.036;15.780;2023-02-01T08:31:04;3.90;99.90
13346;DHT22;6742;48.036;15.780;2023-02-01T08:33:31;4.00;99.90
13346;DHT22;6742;48.036;15.780;2023-02-01T08:36:01;4.00;99.90
13346;DHT22;6742;48.036;15.780;2023-02-01T08:38:28;4.10;99.90
13346;DHT22;6742;48.036;15.780;2023-02-01T08:40:56;4.10;99.90
13346;DHT22;6742;48.036;15.780;2023-02-01T08:43:24;4.20;99.90
13346;DHT22;6742;48.036;15.780;2023-02-01T08:45:54;4.30;99.90
13346;DHT22;6742;48.036;15.780;2023-02-01T08:48:21;4.30;99.90
13346;DHT22;6742;48.036;15.780;2023-02-01T08:50:51;4.30;99.90
13346;DHT22;6742;48.036;15.780;2023-02-01T08:53:18;4.30;99.90
13346;DHT22;6742;48.036;15.780;2023-02-01T08:55:45;4.30;99.90
13346;DHT22;6742;48.036;15.780;2023-02-01T08:58:14;4.30;99.90
13346;DHT22;6742;48.036;15.780;2023-02-01T09:00:42;4.20;99.90
13346;DHT22;6742;48.036;15.780;2023-02-01T09:03:10;4.30;99.90
13346;DHT22;6742;48.036;15.780;2023-02-01T09:05:37;4.30;99.90
13346;DHT22;6742;48.036;15.780;2023-02-01T09:08:04;4.20;99.90
13346;DHT22;6742;48.036;15.780;2023-02-01T09:10:32;4.30;99.90
13346;DHT22;6742;48.036;15.780;2023-02-01T09:12:59;4.30;99.90
13346;DHT22;6742;48.036;15.780;2023-02-01T09:15:30;4.30;99.90
13346;DHT22;6742;48.036;15.780;2023-02-01T09:17:57;4.40;99.90
13346;DHT22;6742;48.036;15.780;2023-02-01T09:20:24;4.40;99.90
13346;DHT22;6742;48.036;15.780;2023-02-01T09:22:51;4.40;99.90
13346;DHT22;6742;48.036;15.780;2023-02-01T09:25:18;4.40;99.90
13346;DHT22;6742;48.036;15.780;2023-02-01T09:27:45;4.20;99.90
13346;DHT22;6742;48.036;15.780;2023-02-01T09:30:13;4.20;99.90
13346;DHT22;6742;48.036;15.780;2023-02-01T09:32:41;4.20;99.90
13346;DHT22;6742;48.036;15.780;2023-02-01T09:35:08;4.10;99.90
13346;DHT22;6742;48.036;15.780;2023-02-01T09:37:35;4.00;99.90
13346;DHT22;6742;48.036;15.780;2023-02-01T09:40:03;3.90;99.90
13346;DHT22;6742;48.036;15.780;2023-02-01T09:42:58;3.90;99.90
13346;DHT22;6742;48.036;15.780;2023-02-01T09:45:31;3.70;99.90
13346;DHT22;6742;48.036;15.780;2023-02-01T09:48:10;3.70;99.90
13346;DHT22;6742;48.036;15.780;2023-02-01T09:50:41;3.60;99.90
13346;DHT22;6742;48.036;15.780;2023-02-01T09:53:15;3.60;99.90
13346;DHT22;6742;48.036;15.780;2023-02-01T09:55:45;3.60;99.90
13346;DHT22;6742;48.036;15.780;2023-02-01T09:58:19;3.70;99.90
13346;DHT22;6742;48.036;15.780;2023-02-01T10:00:52;3.70;99.90
13346;DHT22;6742;48.036;15.780;2023-02-01T10:03:24;3.90;99.90
13346;DHT22;6742;48.036;15.780;2023-02-01T10:09:04;3.90;99.90
13346;DHT22;6742;48.036;15.780;2023-02-01T10:11:42;3.80;99.90
13346;DHT22;6742;48.036;15.780;2023-02-01T10:14:32;3.70;99.90
13346;DHT22;6742;48.036;15.780;2023-02-01T10:17:17;3.70;99.90
13346;DHT22;6742;48.036;15.780;2023-02-01T10:19:58;3.70;99.90
13346;DHT22;6742;48.036;15.780;2023-02-01T10:22:39;3.70;99.90
13346;DHT22;6742;48.036;15.780;2023-02-01T10:25:13;3.70;99.90
13346;DHT22;6742;48.036;15.780;2023-02-01T10:27:47;3.70;99.90
13346;DHT22;6742;48.036;15.780;2023-02-01T10:30:20;3.70;99.90
13346;DHT22;6742;48.036;15.780;2023-02-01T10:32:49;3.80;99.90
13346;DHT22;6742;48.036;15.780;2023-02-01T10:35:23;3.80;99.90
13346;DHT22;6742;48.036;15.780;2023-02-01T10:37:52;3.80;99.90
13346;DHT22;6742;48.036;15.780;2023-02-01T10:40:21;3.80;99.90
13346;DHT22;6742;48.036;15.780;2023-02-01T10:42:50;3.70;99.90
13346;DHT22;6742;48.036;15.780;2023-02-01T10:45:20;3.70;99.90
13346;DHT22;6742;48.036;15.780;2023-02-01T10:47:50;3.70;99.90
13346;DHT22;6742;48.036;15.780;2023-02-01T10:50:25;3.60;99.90
13346;DHT22;6742;48.036;15.780;2023-02-01T10:53:00;3.60;99.90
13346;DHT22;6742;48.036;15.780;2023-02-01T10:55:34;3.60;99.90
13346;DHT22;6742;48.036;15.780;2023-02-01T10:58:04;3.70;99.90
13346;DHT22;6742;48.036;15.780;2023-02-01T11:00:44;3.70;99.90
13346;DHT22;6742;48.036;15.780;2023-02-01T11:03:32;3.70;99.90
13346;DHT22;6742;48.036;15.780;2023-02-01T11:06:10;3.70;99.90
13346;DHT22;6742;48.036;15.780;2023-02-01T11:08:49;3.80;99.90
13346;DHT22;6742;48.036;15.780;2023-02-01T11:11:17;3.80;99.90
13346;DHT22;6742;48.036;15.780;2023-02-01T11:13:44;3.80;99.90
13346;DHT22;6742;48.036;15.780;2023-02-01T11:16:13;3.80;99.90
13346;DHT22;6742;48.036;15.780;2023-02-01T11:18:41;3.80;99.90
13346;DHT22;6742;48.036;15.780;2023-02-01T11:21:10;3.80;99.90
13346;DHT22;6742;48.036;15.780;2023-02-01T11:23:43;3.90;99.90
13346;DHT22;6742;48.036;15.780;2023-02-01T11:26:15;3.90;99.90
13346;DHT22;6742;48.036;15.780;2023-02-01T11:28:53;3.90;99.90
13346;DHT22;6742;48.036;15.780;2023-02-01T11:31:20;3.90;99.90
13346;DHT22;6742;48.036;15.780;2023-02-01T11:33:51;3.80;99.90
13346;DHT22;6742;48.036;15.780;2023-02-01T11:36:24;3.80;99.90
13346;DHT22;6742;48.036;15.780;2023-02-01T11:39:10;3.70;99.90
13346;DHT22;6742;48.036;15.780;2023-02-01T11:41:54;3.70;99.90
13346;DHT22;6742;48.036;15.780;2023-02-01T11:44:26;3.70;99.90
13346;DHT22;6742;48.036;15.780;2023-02-01T11:46:54;3.70;99.90
13346;DHT22;6742;48.036;15.780;2023-02-01T11:49:23;3.70;99.90
13346;DHT22;6742;48.036;15.780;2023-02-01T11:52:03;3.70;99.90
13346;DHT22;6742;48.036;15.780;2023-02-01T11:57:43;3.70;99.90
13346;DHT22;6742;48.036;15.780;2023-02-01T12:00:36;3.60;99.90
13346;DHT22;6742;48.036;15.780;2023-02-01T12:03:32;3.60;99.90
13346;DHT22;6742;48.036;15.780;2023-02-01T12:06:08;3.60;99.90
13346;DHT22;6742;48.036;15.780;2023-02-01T12:09:00;3.70;99.90
13346;DHT22;6742;48.036;15.780;2023-02-01T12:14:32;3.70;99.90
13346;DHT22;6742;48.036;15.780;2023-02-01T12:20:15;3.70;99.90
13346;DHT22;6742;48.036;15.780;2023-02-01T12:22:56;3.70;99.90
13346;DHT22;6742;48.036;15.780;2023-02-01T12:25:40;3.70;99.90
13346;DHT22;6742;48.036;15.780;2023-02-01T12:28:31;3.60;99.90
13346;DHT22;6742;48.036;15.780;2023-02-01T12:31:15;3.70;99.90
13346;DHT22;6742;48.036;15.780;2023-02-01T12:34:11;3.70;99.90
13346;DHT22;6742;48.036;15.780;2023-02-01T12:36:47;3.70;99.90
13346;DHT22;6742;48.036;15.780;2023-02-01T12:39:23;3.70;99.90
13346;DHT22;6742;48.036;15.780;2023-02-01T12:41:57;3.80;99.90
13346;DHT22;6742;48.036;15.780;2023-02-01T12:44:35;3.90;99.90
13346;DHT22;6742;48.036;15.780;2023-02-01T12:47:07;3.90;99.90
13346;DHT22;6742;48.036;15.780;2023-02-01T12:49:45;3.80;99.90
13346;DHT22;6742;48.036;15.780;2023-02-01T12:52:20;3.70;99.90
13346;DHT22;6742;48.036;15.780;2023-02-01T12:54:50;3.70;99.90
13346;DHT22;6742;48.036;15.780;2023-02-01T12:57:26;3.60;99.90
13346;DHT22;6742;48.036;15.780;2023-02-01T12:59:59;3.60;99.90
13346;DHT22;6742;48.036;15.780;2023-02-01T13:02:32;3.50;99.90
13346;DHT22;6742;48.036;15.780;2023-02-01T13:05:11;3.50;99.90
13346;DHT22;6742;48.036;15.780;2023-02-01T13:07:45;3.50;99.90
13346;DHT22;6742;48.036;15.780;2023-02-01T13:10:18;3.50;99.90
13346;DHT22;6742;48.036;15.780;2023-02-01T13:12:53;3.60;99.90
13346;DHT22;6742;48.036;15.780;2023-02-01T13:15:28;3.60;99.90
13346;DHT22;6742;48.036;15.780;2023-02-01T13:18:00;3.60;99.90
13346;DHT22;6742;48.036;15.780;2023-02-01T13:20:30;3.60;99.90
13346;DHT22;6742;48.036;15.780;2023-02-01T13:23:02;3.50;99.90
13346;DHT22;6742;48.036;15.780;2023-02-01T13:25:35;3.50;99.90
13346;DHT22;6742;48.036;15.780;2023-02-01T13:28:05;3.30;99.90
13346;DHT22;6742;48.036;15.780;2023-02-01T13:30:54;3.30;99.90
13346;DHT22;6742;48.036;15.780;2023-02-01T13:36:38;3.00;99.90
13346;DHT22;6742;48.036;15.780;2023-02-01T13:39:35;2.90;99.90
13346;DHT22;6742;48.036;15.780;2023-02-01T13:42:15;2.90;99.90
13346;DHT22;6742;48.036;15.780;2023-02-01T13:44:50;3.00;99.90
13346;DHT22;6742;48.036;15.780;2023-02-01T13:47:26;3.00;99.90
13346;DHT22;6742;48.036;15.780;2023-02-01T13:49:57;3.00;99.90
13346;DHT22;6742;48.036;15.780;2023-02-01T13:52:32;3.00;99.90
13346;DHT22;6742;48.036;15.780;2023-02-01T13:55:23;2.90;99.90
13346;DHT22;6742;48.036;15.780;2023-02-01T13:57:58;2.90;99.90
13346;DHT22;6742;48.036;15.780;2023-02-01T14:00:28;2.80;99.90
13346;DHT22;6742;48.036;15.780;2023-02-01T14:03:11;2.70;99.90
13346;DHT22;6742;48.036;15.780;2023-02-01T14:08:46;2.60;99.90
13346;DHT22;6742;48.036;15.780;2023-02-01T14:11:38;2.50;99.90
13346;DHT22;6742;48.036;15.780;2023-02-01T14:17:36;2.50;99.90
13346;DHT22;6742;48.036;15.780;2023-02-01T14:20:38;2.60;99.90
13346;DHT22;6742;48.036;15.780;2023-02-01T14:23:12;2.60;99.90
13346;DHT22;6742;48.036;15.780;2023-02-01T14:25:41;2.60;99.90
13346;DHT22;6742;48.036;15.780;2023-02-01T14:28:16;2.60;99.90
13346;DHT22;6742;48.036;15.780;2023-02-01T14:30:47;2.60;99.90
13346;DHT22;6742;48.036;15.780;2023-02-01T14:33:21;2.60;99.90
13346;DHT22;6742;48.036;15.780;2023-02-01T14:36:10;2.60;99.90
13346;DHT22;6742;48.036;15.780;2023-02-01T14:38:38;2.60;99.90
13346;DHT22;6742;48.036;15.780;2023-02-01T14:41:26;2.70;99.90
13346;DHT22;6742;48.036;15.780;2023-02-01T14:50:30;2.70;99.90
13346;DHT22;6742;48.036;15.780;2023-02-01T14:53:14;2.80;99.90
13346;DHT22;6742;48.036;15.780;2023-02-01T14:55:46;2.80;99.90
13346;DHT22;6742;48.036;15.780;2023-02-01T14:58:20;2.80;99.90
13346;DHT22;6742;48.036;15.780;2023-02-01T15:00:52;2.80;99.90
13346;DHT22;6742;48.036;15.780;2023-02-01T15:03:32;2.90;99.90
13346;DHT22;6742;48.036;15.780;2023-02-01T15:06:03;2.90;99.90
13346;DHT22;6742;48.036;15.780;2023-02-01T15:08:37;2.90;99.90
13346;DHT22;6742;48.036;15.780;2023-02-01T15:11:10;2.90;99.90
13346;DHT22;6742;48.036;15.780;2023-02-01T15:13:38;2.90;99.90
13346;DHT22;6742;48.036;15.780;2023-02-01T15:16:10;2.90;99.90
13346;DHT22;6742;48.036;15.780;2023-02-01T15:18:38;2.90;99.90
13346;DHT22;6742;48.036;15.780;2023-02-01T15:21:14;2.90;99.90
13346;DHT22;6742;48.036;15.780;2023-02-01T15:23:41;3.00;99.90
13346;DHT22;6742;48.036;15.780;2023-02-01T15:26:08;3.00;99.90
13346;DHT22;6742;48.036;15.780;2023-02-01T15:28:35;3.00;99.90
13346;DHT22;6742;48.036;15.780;2023-02-01T15:31:04;3.00;99.90
13346;DHT22;6742;48.036;15.780;2023-02-01T15:33:31;3.00;99.90
13346;DHT22;6742;48.036;15.780;2023-02-01T15:36:09;3.00;99.90
13346;DHT22;6742;48.036;15.780;2023-02-01T15:38:39;3.00;99.90
13346;DHT22;6742;48.036;15.780;2023-02-01T15:41:09;3.10;99.90
13346;DHT22;6742;48.036;15.780;2023-02-01T15:43:40;3.10;99.90
13346;DHT22;6742;48.036;15.780;2023-02-01T15:46:11;3.00;99.90
13346;DHT22;6742;48.036;15.780;2023-02-01T15:48:44;3.10;99.90
13346;DHT22;6742;48.036;15.780;2023-02-01T15:51:18;3.00;99.90
13346;DHT22;6742;48.036;15.780;2023-02-01T15:53:49;3.10;99.90
13346;DHT22;6742;48.036;15.780;2023-02-01T15:56:22;3.10;99.90
13346;DHT22;6742;48.036;15.780;2023-02-01T15:58:52;3.20;99.90
13346;DHT22;6742;48.036;15.780;2023-02-01T16:01:19;3.20;99.90
13346;DHT22;6742;48.036;15.780;2023-02-01T16:03:47;3.10;99.90
13346;DHT22;6742;48.036;15.780;2023-02-01T16:06:29;3.20;99.90
13346;DHT22;6742;48.036;15.780;2023-02-01T16:09:02;3.30;99.90
13346;DHT22;6742;48.036;15.780;2023-02-01T16:11:32;3.30;99.90
13346;DHT22;6742;48.036;15.780;2023-02-01T16:14:00;3.20;99.90
13346;DHT22;6742;48.036;15.780;2023-02-01T16:16:28;3.30;99.90
13346;DHT22;6742;48.036;15.780;2023-02-01T16:18:55;3.30;99.90
13346;DHT22;6742;48.036;15.780;2023-02-01T16:21:22;3.20;99.90
13346;DHT22;6742;48.036;15.780;2023-02-01T16:23:52;3.30;99.90
13346;DHT22;6742;48.036;15.780;2023-02-01T16:26:19;3.40;99.90
13346;DHT22;6742;48.036;15.780;2023-02-01T16:28:46;3.30;99.90
13346;DHT22;6742;48.036;15.780;2023-02-01T16:31:15;3.30;99.90
13346;DHT22;6742;48.036;15.780;2023-02-01T16:33:46;3.40;99.90
13346;DHT22;6742;48.036;15.780;2023-02-01T16:36:14;3.40;99.90
13346;DHT22;6742;48.036;15.780;2023-02-01T16:38:41;3.40;99.90
13346;DHT22;6742;48.036;15.780;2023-02-01T16:41:12;3.30;99.90
13346;DHT22;6742;48.036;15.780;2023-02-01T16:43:40;3.40;99.90
13346;DHT22;6742;48.036;15.780;2023-02-01T16:46:13;3.30;99.90
13346;DHT22;6742;48.036;15.780;2023-02-01T16:48:42;3.40;99.90